Time;durP1;ratioP1;P1;durP2;ratioP2;P2;SDS_P1;SDS_P2;PMS_P1;PMS_P2;Temp;Humidity;BMP_temperature;BMP_pressure;BME280_temperature;BME280_humidity;BME280_pressure;Samples;Min_cycle;Max_cycle;Signal;HPM_P1;HPM_P2
2023/08/23 00:00:52;;;;;;;;;2.50;1.25;;;;;22.58;55.20;101414.25;5081999;27;45244;-76
2023/08/23 00:03:18;;;;;;;;;2.00;2.00;;;;;22.53;55.06;101409.22;5096334;27;45352;-77
2023/08/23 00:05:43;;;;;;;;;1.25;1.25;;;;;22.53;55.33;101417.22;5088749;27;46544;-76
2023/08/23 00:08:09;;;;;;;;;3.00;1.00;;;;;22.50;54.96;101415.59;5083371;27;45362;-76
2023/08/23 00:10:34;;;;;;;;;1.75;1.75;;;;;22.49;55.23;101408.56;5083480;27;45147;-76
2023/08/23 00:13:00;;;;;;;;;3.00;1.75;;;;;22.52;54.68;101412.81;5083938;27;45613;-76
2023/08/23 00:15:25;;;;;;;;;1.75;1.75;;;;;22.49;54.88;101397.88;5088524;27;45557;-76
2023/08/23 00:17:50;;;;;;;;;1.00;1.00;;;;;22.50;54.69;101401.41;5080876;27;46088;-77
2023/08/23 00:20:16;;;;;;;;;3.00;1.00;;;;;22.54;54.63;101411.78;5089355;27;55958;-77
2023/08/23 00:22:41;;;;;;;;;3.50;2.00;;;;;22.51;54.98;101401.31;5087157;27;45529;-76
2023/08/23 00:25:08;;;;;;;;;2.25;2.00;;;;;22.52;54.63;101407.47;5092628;27;45695;-76
2023/08/23 00:27:33;;;;;;;;;1.25;1.00;;;;;22.51;54.71;101400.47;5079582;27;47567;-75
2023/08/23 00:29:58;;;;;;;;;4.00;1.25;;;;;22.49;54.79;101410.38;5096441;27;65652;-75
2023/08/23 00:32:24;;;;;;;;;1.25;1.25;;;;;22.47;54.36;101404.25;5089499;27;45551;-76
2023/08/23 00:34:49;;;;;;;;;1.00;1.00;;;;;22.44;54.59;101396.50;5080882;27;45532;-76
2023/08/23 00:37:15;;;;;;;;;2.00;1.00;;;;;22.40;54.22;101390.50;5091793;27;46298;-76
2023/08/23 00:39:40;;;;;;;;;1.00;1.00;;;;;22.35;54.34;101382.81;5091714;27;60562;-75
2023/08/23 00:42:05;;;;;;;;;0.00;0.00;;;;;22.34;54.27;101375.75;5089576;27;69709;-74
2023/08/23 00:44:31;;;;;;;;;2.25;2.00;;;;;22.34;54.32;101380.22;5096260;27;45249;-74
2023/08/23 00:46:56;;;;;;;;;3.75;0.25;;;;;22.34;54.30;101372.22;5089481;27;63503;-75
2023/08/23 00:49:22;;;;;;;;;1.00;1.00;;;;;22.32;54.11;101368.81;5089455;27;45450;-76
2023/08/23 00:51:48;;;;;;;;;1.00;1.00;;;;;22.28;54.61;101362.00;5088012;27;64274;-75
2023/08/23 00:54:13;;;;;;;;;1.50;1.00;;;;;22.24;54.48;101357.75;5088458;27;69111;-76
2023/08/23 00:56:39;;;;;;;;;1.00;1.00;;;;;22.22;54.40;101360.53;5088462;27;50016;-76
2023/08/23 00:59:06;;;;;;;;;2.00;2.00;;;;;22.19;54.36;101358.09;5093207;27;45291;-75
2023/08/23 01:01:32;;;;;;;;;1.00;1.00;;;;;22.16;54.18;101355.63;5087362;27;45513;-75
2023/08/23 01:03:57;;;;;;;;;1.00;1.00;;;;;22.11;54.93;101355.91;5091349;27;71611;-76
2023/08/23 01:06:35;;;;;;;;;1.25;0.50;;;;;22.07;54.54;101358.88;5087937;27;46013;-76
2023/08/23 01:09:18;;;;;;;;;1.00;1.00;;;;;22.06;54.39;101359.84;5072025;27;45359;-76
2023/08/23 01:12:00;;;;;;;;;2.25;1.00;;;;;21.99;54.58;101362.03;5091731;27;45339;-75
2023/08/23 01:14:35;;;;;;;;;2.00;2.00;;;;;21.94;54.88;101359.69;5084231;27;45500;-75
2023/08/23 01:17:01;;;;;;;;;4.00;2.75;;;;;21.91;54.67;101356.38;5073286;27;47078;-74
2023/08/23 01:19:51;;;;;;;;;7.75;5.25;;;;;21.88;55.22;101356.56;5075187;27;45523;-76
2023/08/23 01:22:22;;;;;;;;;5.00;4.75;;;;;21.83;55.87;101356.00;5086441;27;45418;-76
2023/08/23 01:24:48;;;;;;;;;8.25;5.75;;;;;21.79;55.28;101350.88;5090084;27;47071;-75
2023/08/23 01:27:16;;;;;;;;;4.00;3.50;;;;;21.79;55.37;101352.69;5087816;27;45472;-74
2023/08/23 01:29:42;;;;;;;;;5.50;5.00;;;;;21.75;55.32;101353.84;5091301;27;45467;-74
2023/08/23 01:32:35;;;;;;;;;3.50;2.75;;;;;21.77;55.03;101359.91;5093918;27;45523;-75
2023/08/23 01:35:09;;;;;;;;;5.25;3.00;;;;;21.75;55.67;101359.16;5071246;27;45430;-76
2023/08/23 01:37:40;;;;;;;;;3.00;2.00;;;;;21.71;55.62;101363.84;5083903;27;47531;-76
2023/08/23 01:40:09;;;;;;;;;3.50;3.50;;;;;21.70;55.80;101363.94;5086355;27;45516;-76
2023/08/23 01:42:35;;;;;;;;;2.25;2.00;;;;;21.67;55.92;101354.31;5076190;27;45415;-75
2023/08/23 01:45:02;;;;;;;;;2.25;1.00;;;;;21.66;55.80;101359.75;5085874;27;45738;-75
2023/08/23 01:47:27;;;;;;;;;3.75;2.00;;;;;21.62;55.97;101359.09;5091163;27;45474;-76
2023/08/23 01:49:53;;;;;;;;;1.75;1.75;;;;;21.61;55.67;101360.03;5087111;27;45161;-76
2023/08/23 01:52:18;;;;;;;;;2.00;2.00;;;;;21.57;56.20;101363.88;5091500;27;45809;-75
2023/08/23 01:54:44;;;;;;;;;1.00;1.00;;;;;21.55;55.71;101361.28;5088344;27;45191;-76
2023/08/23 01:57:09;;;;;;;;;2.50;1.00;;;;;21.51;56.04;101354.44;5096159;27;46837;-76
2023/08/23 01:59:37;;;;;;;;;3.75;1.25;;;;;21.49;56.33;101348.34;5089102;27;45403;-76
2023/08/23 02:02:03;;;;;;;;;1.00;1.00;;;;;21.48;56.43;101349.31;5093001;27;45399;-77
2023/08/23 02:04:29;;;;;;;;;1.00;1.00;;;;;21.46;56.16;101355.69;5088840;27;45446;-76
2023/08/23 02:06:54;;;;;;;;;1.50;1.50;;;;;21.45;56.38;101351.28;5095849;27;72992;-77
2023/08/23 02:09:19;;;;;;;;;1.00;1.00;;;;;21.42;56.29;101349.66;5091486;27;45598;-76
2023/08/23 02:11:45;;;;;;;;;1.00;1.00;;;;;21.38;56.19;101338.34;5093144;27;45331;-76
2023/08/23 02:14:10;;;;;;;;;4.50;1.50;;;;;21.37;56.42;101338.44;5092632;27;72151;-76
2023/08/23 02:16:35;;;;;;;;;1.75;1.75;;;;;21.37;56.16;101333.13;5093996;27;77174;-76
2023/08/23 02:19:01;;;;;;;;;3.25;1.00;;;;;21.36;56.36;101334.94;5085939;27;52160;-76
2023/08/23 02:21:26;;;;;;;;;1.00;1.00;;;;;21.33;56.71;101337.78;5088971;27;45427;-75
2023/08/23 02:23:51;;;;;;;;;1.00;1.00;;;;;21.32;57.02;101329.88;5093804;27;49452;-75
2023/08/23 02:26:17;;;;;;;;;1.00;1.00;;;;;21.29;57.51;101330.09;5092443;27;65993;-74
2023/08/23 02:28:42;;;;;;;;;3.00;2.00;;;;;21.23;56.71;101332.19;5085477;27;59510;-74
2023/08/23 02:31:07;;;;;;;;;2.00;1.00;;;;;21.18;56.81;101331.63;5090514;27;45638;-74
2023/08/23 02:33:33;;;;;;;;;1.00;1.00;;;;;21.17;57.61;101337.03;5093601;27;49635;-74
2023/08/23 02:35:58;;;;;;;;;2.00;2.00;;;;;21.08;57.32;101326.97;5090082;27;66967;-73
2023/08/23 02:38:23;;;;;;;;;1.00;1.00;;;;;21.04;57.87;101327.16;5087917;27;67041;-74
2023/08/23 02:40:49;;;;;;;;;1.00;1.00;;;;;21.00;57.50;101328.28;5093834;27;45742;-74
2023/08/23 02:43:14;;;;;;;;;2.00;0.00;;;;;20.96;57.37;101324.09;5082318;27;60540;-74
2023/08/23 02:45:40;;;;;;;;;0.00;0.00;;;;;20.93;57.37;101332.28;5087179;27;60744;-74
2023/08/23 02:48:09;;;;;;;;;1.25;1.00;;;;;20.91;57.91;101338.63;5095454;27;45451;-74
2023/08/23 02:50:35;;;;;;;;;1.50;1.50;;;;;20.90;57.74;101335.13;5085569;27;45612;-75
2023/08/23 02:53:00;;;;;;;;;2.75;1.00;;;;;20.89;58.06;101321.91;5092875;27;45462;-75
2023/08/23 02:55:26;;;;;;;;;1.00;1.00;;;;;20.89;57.93;101330.75;5094131;27;52753;-75
2023/08/23 02:57:51;;;;;;;;;1.75;1.00;;;;;20.88;58.00;101330.84;5098338;27;71064;-75
2023/08/23 03:00:16;;;;;;;;;2.25;1.00;;;;;20.85;58.33;101324.75;5093846;27;62065;-74
2023/08/23 03:02:42;;;;;;;;;3.00;1.00;;;;;20.87;58.13;101335.31;5081010;27;45449;-75
2023/08/23 03:05:07;;;;;;;;;1.00;1.00;;;;;20.89;57.77;101328.06;5090994;27;73803;-75
2023/08/23 03:07:33;;;;;;;;;2.00;1.00;;;;;20.91;57.84;101336.84;5092558;27;45275;-75
2023/08/23 03:09:58;;;;;;;;;1.00;1.00;;;;;20.86;58.45;101331.78;5085203;27;46624;-75
2023/08/23 03:12:24;;;;;;;;;1.00;1.00;;;;;20.84;58.31;101330.16;5082684;27;65855;-75
2023/08/23 03:14:49;;;;;;;;;3.50;1.50;;;;;20.80;58.35;101332.16;5083969;27;47364;-75
2023/08/23 03:17:14;;;;;;;;;1.25;0.75;;;;;20.77;58.51;101331.47;5084347;27;66572;-75
2023/08/23 03:19:40;;;;;;;;;2.75;1.00;;;;;20.76;58.44;101340.44;5086671;27;67301;-75
2023/08/23 03:22:05;;;;;;;;;1.25;1.25;;;;;20.75;58.73;101333.38;5094024;27;45493;-74
2023/08/23 03:24:30;;;;;;;;;1.00;1.00;;;;;20.67;58.99;101328.53;5093033;27;45291;-75
2023/08/23 03:26:55;;;;;;;;;0.75;0.75;;;;;20.72;58.23;101329.13;5087817;27;58475;-75
2023/08/23 03:29:21;;;;;;;;;0.00;0.00;;;;;20.71;58.44;101329.22;5093800;27;65934;-76
2023/08/23 03:31:47;;;;;;;;;1.00;1.00;;;;;20.67;59.15;101323.22;5084236;27;56428;-76
2023/08/23 03:34:12;;;;;;;;;4.50;0.75;;;;;20.65;58.57;101323.31;5082226;27;45761;-76
2023/08/23 03:36:38;;;;;;;;;1.50;1.00;;;;;20.62;59.23;101320.81;5092390;27;74204;-76
2023/08/23 03:39:03;;;;;;;;;1.75;1.25;;;;;20.63;59.27;101324.34;5091994;27;60937;-73
2023/08/23 03:41:28;;;;;;;;;2.75;1.50;;;;;20.59;59.44;101317.47;5088873;27;62855;-74
2023/08/23 03:43:54;;;;;;;;;1.00;0.75;;;;;20.58;59.79;101315.75;5081789;27;73752;-74
2023/08/23 03:46:23;;;;;;;;;2.00;1.00;;;;;20.48;60.13;101310.97;5085237;27;61957;-74
2023/08/23 03:48:48;;;;;;;;;2.50;2.00;;;;;20.48;60.16;101308.31;5089456;27;45301;-73
2023/08/23 03:51:14;;;;;;;;;1.00;1.00;;;;;20.49;60.28;101303.88;5085353;27;65246;-73
2023/08/23 03:53:39;;;;;;;;;2.00;1.00;;;;;20.47;60.33;101309.28;5080782;27;65451;-74
2023/08/23 03:56:05;;;;;;;;;3.00;1.00;;;;;20.42;60.62;101316.66;5080184;27;70940;-74
2023/08/23 03:58:30;;;;;;;;;1.25;1.00;;;;;20.37;60.56;101315.22;5086421;27;45516;-74
2023/08/23 04:00:55;;;;;;;;;1.75;1.00;;;;;20.31;60.91;101316.47;5093336;27;45296;-73
2023/08/23 04:03:21;;;;;;;;;1.50;1.50;;;;;20.26;61.13;101330.00;5083048;27;46325;-73
2023/08/23 04:05:46;;;;;;;;;4.75;1.50;;;;;20.28;61.14;101335.22;5090370;27;45370;-73
2023/08/23 04:08:13;;;;;;;;;2.25;0.50;;;;;20.26;61.18;101329.16;5089301;27;45420;-72
2023/08/23 04:10:38;;;;;;;;;1.00;0.00;;;;;20.28;61.19;101325.44;5096895;27;45373;-73
2023/08/23 04:13:04;;;;;;;;;1.25;1.00;;;;;20.26;61.60;101330.00;5096028;27;45465;-74
2023/08/23 04:15:29;;;;;;;;;3.00;2.00;;;;;20.17;61.76;101324.34;5082923;27;47269;-75
2023/08/23 04:17:54;;;;;;;;;1.25;1.25;;;;;20.16;61.79;101342.09;5082152;27;45338;-72
2023/08/23 04:20:20;;;;;;;;;2.50;2.00;;;;;20.13;61.68;101336.13;5081432;27;45530;-74
2023/08/23 04:22:45;;;;;;;;;2.00;1.75;;;;;20.16;61.68;101335.94;5082069;27;48322;-72
2023/08/23 04:25:11;;;;;;;;;1.00;1.00;;;;;20.15;62.05;101336.88;5088671;27;63541;-74
2023/08/23 04:27:37;;;;;;;;;3.50;1.50;;;;;20.09;62.15;101330.97;5085126;27;66019;-74
2023/08/23 04:30:06;;;;;;;;;1.75;1.75;;;;;20.06;62.07;101331.16;5081663;27;45204;-74
2023/08/23 04:32:31;;;;;;;;;2.00;2.00;;;;;20.14;61.97;101325.41;5083194;27;45452;-75
2023/08/23 04:34:57;;;;;;;;;1.50;1.50;;;;;20.16;62.15;101326.16;5080352;27;45485;-73
2023/08/23 04:37:22;;;;;;;;;1.00;1.00;;;;;20.15;62.13;101329.78;5087429;27;45393;-73
2023/08/23 04:39:48;;;;;;;;;3.50;1.75;;;;;20.12;62.17;101335.25;5086342;27;57719;-74
2023/08/23 04:42:13;;;;;;;;;1.75;1.50;;;;;20.06;62.69;101327.63;5094628;27;45657;-74
2023/08/23 04:44:38;;;;;;;;;1.00;1.00;;;;;20.00;62.95;101331.50;5083968;27;45627;-74
2023/08/23 04:47:04;;;;;;;;;1.75;1.00;;;;;19.88;63.29;101317.13;5097546;27;65128;-73
2023/08/23 04:49:29;;;;;;;;;2.00;2.00;;;;;19.81;63.01;101321.06;5089459;27;45523;-73
2023/08/23 04:51:54;;;;;;;;;4.50;1.00;;;;;19.78;63.03;101326.56;5077582;27;63770;-74
2023/08/23 04:54:20;;;;;;;;;1.25;1.00;;;;;19.73;63.68;101326.81;5088288;27;45392;-75
2023/08/23 04:56:45;;;;;;;;;3.75;2.00;;;;;19.79;63.35;101330.91;5085383;27;45445;-74
2023/08/23 04:59:11;;;;;;;;;3.75;2.00;;;;;19.78;63.42;101329.22;5099175;27;45439;-75
2023/08/23 05:01:36;;;;;;;;;5.25;2.00;;;;;19.76;63.56;101335.53;5099758;27;45379;-73
2023/08/23 05:04:01;;;;;;;;;1.00;1.00;;;;;19.73;63.77;101320.63;5098881;27;47436;-73
2023/08/23 05:06:27;;;;;;;;;2.00;2.00;;;;;19.74;64.05;101330.31;5098360;27;45201;-74
2023/08/23 05:08:52;;;;;;;;;2.00;1.50;;;;;19.72;64.01;101335.72;5098675;27;61106;-73
2023/08/23 05:11:18;;;;;;;;;1.00;1.00;;;;;19.69;63.95;101330.56;5093918;27;45956;-74
2023/08/23 05:13:43;;;;;;;;;2.75;1.00;;;;;19.68;64.05;101330.63;5098750;27;45221;-73
2023/08/23 05:16:08;;;;;;;;;3.00;1.50;;;;;19.69;64.21;101335.03;5104624;27;64581;-74
2023/08/23 05:18:34;;;;;;;;;4.50;4.00;;;;;19.66;64.28;101332.53;5099919;27;45311;-74
2023/08/23 05:20:59;;;;;;;;;3.00;1.50;;;;;19.61;64.46;101324.81;5097936;27;75398;-74
2023/08/23 05:23:25;;;;;;;;;2.00;2.00;;;;;19.66;64.68;101335.19;5101054;27;45375;-74
2023/08/23 05:25:51;;;;;;;;;2.00;2.00;;;;;19.66;64.65;101329.88;5088541;27;45916;-74
2023/08/23 05:28:18;;;;;;;;;2.50;2.00;;;;;19.68;64.60;101328.81;5098277;27;45357;-74
2023/08/23 05:30:43;;;;;;;;;2.00;2.00;;;;;19.66;64.54;101327.22;5094931;27;46182;-75
2023/08/23 05:33:09;;;;;;;;;2.00;2.00;;;;;19.67;64.64;101332.44;5105251;27;45445;-75
2023/08/23 05:35:34;;;;;;;;;1.25;1.25;;;;;19.66;64.88;101337.84;5106220;27;61163;-75
2023/08/23 05:38:00;;;;;;;;;4.50;3.00;;;;;19.65;64.79;101338.75;5093843;27;45281;-73
2023/08/23 05:40:25;;;;;;;;;3.00;3.00;;;;;19.69;64.54;101341.19;5091705;27;52347;-72
2023/08/23 05:42:51;;;;;;;;;2.75;2.25;;;;;19.71;64.70;101344.59;5086338;27;61625;-70
2023/08/23 05:45:16;;;;;;;;;3.25;2.00;;;;;19.70;65.07;101342.03;5098712;27;45433;-69
2023/08/23 05:47:41;;;;;;;;;2.00;1.00;;;;;19.69;64.91;101345.66;5095184;27;45444;-71
2023/08/23 05:50:07;;;;;;;;;3.25;2.50;;;;;19.70;64.99;101347.34;5100984;27;71449;-75
2023/08/23 05:52:32;;;;;;;;;3.50;2.00;;;;;19.71;64.81;101341.94;5099950;27;45454;-76
2023/08/23 05:54:58;;;;;;;;;2.00;2.00;;;;;19.72;64.91;101341.00;5085856;27;45411;-76
2023/08/23 05:57:23;;;;;;;;;2.75;2.75;;;;;19.72;64.62;101334.81;5095776;27;67488;-73
2023/08/23 05:59:48;;;;;;;;;4.25;3.00;;;;;19.73;65.45;101331.25;5096884;27;54214;-74
2023/08/23 06:02:14;;;;;;;;;2.50;2.00;;;;;19.71;64.90;101323.34;5099646;27;45666;-71
2023/08/23 06:04:39;;;;;;;;;4.00;3.50;;;;;19.71;65.12;101322.50;5086495;27;63595;-72
2023/08/23 06:07:05;;;;;;;;;4.00;2.25;;;;;19.76;65.14;101333.75;5092919;27;70439;-73
2023/08/23 06:09:32;;;;;;;;;2.50;2.00;;;;;19.74;65.00;101327.66;5093162;27;48159;-70
2023/08/23 06:11:59;;;;;;;;;3.25;3.25;;;;;19.75;64.94;101334.69;5078182;27;45900;-70
2023/08/23 06:14:24;;;;;;;;;5.00;3.25;;;;;19.72;65.11;101335.72;5083986;27;45354;-73
2023/08/23 06:16:50;;;;;;;;;1.75;1.75;;;;;19.77;64.93;101331.97;5087750;27;45594;-71
2023/08/23 06:19:15;;;;;;;;;6.25;2.00;;;;;19.84;64.95;101336.81;5094900;27;45251;-71
2023/08/23 06:21:44;;;;;;;;;7.00;2.00;;;;;19.84;65.23;101331.50;5085706;27;59195;-70
2023/08/23 06:24:10;;;;;;;;;4.00;1.50;;;;;19.88;64.64;101343.69;5092587;27;45336;-70
2023/08/23 06:26:35;;;;;;;;;2.50;2.50;;;;;19.91;64.75;101324.06;5098462;27;45531;-73
2023/08/23 06:29:01;;;;;;;;;6.00;3.00;;;;;20.00;64.57;101333.31;5089218;27;46209;-73
2023/08/23 06:31:29;;;;;;;;;4.75;2.00;;;;;20.02;64.15;101332.25;5085456;27;56138;-71
2023/08/23 06:33:54;;;;;;;;;4.25;3.25;;;;;20.05;64.28;101337.41;5076700;27;45395;-75
2023/08/23 06:36:19;;;;;;;;;2.00;2.00;;;;;20.12;64.11;101337.06;5083618;27;54168;-79
2023/08/23 06:38:45;;;;;;;;;2.50;2.00;;;;;20.20;64.01;101334.81;5096472;27;73688;-83
2023/08/23 06:41:10;;;;;;;;;5.25;2.25;;;;;20.21;64.08;101333.88;5092650;27;45240;-76
2023/08/23 06:43:36;;;;;;;;;2.00;2.00;;;;;20.24;64.05;101339.03;5086463;27;45536;-71
2023/08/23 06:46:01;;;;;;;;;4.75;3.00;;;;;20.22;64.11;101344.44;5093413;27;67214;-71
2023/08/23 06:48:27;;;;;;;;;3.00;3.00;;;;;20.29;64.01;101336.94;5086932;27;46424;-69
2023/08/23 06:50:54;;;;;;;;;6.25;3.00;;;;;20.33;63.48;101341.13;5110471;27;45388;-71
2023/08/23 06:53:19;;;;;;;;;5.25;2.75;;;;;20.41;63.70;101340.69;5090131;27;45480;-74
2023/08/23 06:55:44;;;;;;;;;4.00;2.00;;;;;20.49;63.35;101344.59;5093449;27;45422;-72
2023/08/23 06:58:10;;;;;;;;;3.00;3.00;;;;;20.59;62.93;101338.72;5100380;27;69978;-72
2023/08/23 07:00:36;;;;;;;;;3.25;2.00;;;;;20.65;62.86;101325.97;5096243;27;45689;-72
2023/08/23 07:03:01;;;;;;;;;4.00;4.00;;;;;20.70;63.15;101346.97;5085800;27;45306;-70
2023/08/23 07:05:27;;;;;;;;;4.00;3.00;;;;;20.76;62.70;101351.91;5089249;27;45375;-69
2023/08/23 07:07:52;;;;;;;;;2.75;2.00;;;;;20.80;62.61;101357.91;5089468;27;54970;-69
2023/08/23 07:10:18;;;;;;;;;4.00;2.00;;;;;20.76;62.79;101346.59;5093423;27;45432;-68
2023/08/23 07:12:44;;;;;;;;;4.50;3.00;;;;;20.82;62.63;101359.53;5086851;27;45500;-69
2023/08/23 07:15:10;;;;;;;;;4.25;2.50;;;;;20.76;62.66;101343.94;5085184;27;45599;-70
2023/08/23 07:17:36;;;;;;;;;8.00;4.50;;;;;20.84;62.56;101357.63;5094348;27;45420;-74
2023/08/23 07:20:03;;;;;;;;;3.00;3.00;;;;;20.88;62.51;101353.00;5078141;27;45573;-75
2023/08/23 07:22:28;;;;;;;;;5.50;4.00;;;;;20.88;62.39;101354.81;5091447;27;45476;-74
2023/08/23 07:24:54;;;;;;;;;2.00;1.00;;;;;20.95;62.13;101353.47;5063662;28;45311;-74
2023/08/23 07:27:19;;;;;;;;;5.25;2.25;;;;;21.00;62.17;101359.34;5087932;27;69636;-73
2023/08/23 07:29:45;;;;;;;;;7.25;5.75;;;;;21.08;62.04;101364.22;5095414;27;45426;-74
2023/08/23 07:32:11;;;;;;;;;16.25;11.25;;;;;21.12;61.94;101358.59;5082636;27;45691;-73
2023/08/23 07:34:36;;;;;;;;;12.00;8.00;;;;;21.20;61.54;101352.81;5084510;27;45502;-73
2023/08/23 07:37:02;;;;;;;;;26.50;15.50;;;;;21.27;61.43;101358.63;5074893;28;45493;-75
2023/08/23 07:39:27;;;;;;;;;4.75;4.75;;;;;21.33;61.57;101355.56;5099927;27;45368;-77
2023/08/23 07:41:54;;;;;;;;;6.75;5.00;;;;;21.39;61.19;101352.53;5073977;27;45375;-80
2023/08/23 07:44:20;;;;;;;;;4.00;3.75;;;;;21.47;60.91;101352.94;5075261;27;45469;-69
2023/08/23 07:46:45;;;;;;;;;4.00;3.25;;;;;21.58;61.14;101362.91;5065614;28;46982;-74
2023/08/23 07:49:11;;;;;;;;;4.00;3.00;;;;;21.63;60.70;101366.13;5092334;27;46343;-69
2023/08/23 07:51:37;;;;;;;;;3.00;2.50;;;;;21.65;60.80;101358.03;5085642;27;45298;-68
2023/08/23 07:54:03;;;;;;;;;4.50;2.25;;;;;21.73;60.37;101361.94;5081950;27;45351;-68
2023/08/23 07:56:28;;;;;;;;;4.00;3.25;;;;;21.77;60.57;101365.25;5083767;27;46245;-68
2023/08/23 07:58:54;;;;;;;;;4.75;3.00;;;;;21.84;60.65;101365.72;5094764;27;45276;-65
2023/08/23 08:01:19;;;;;;;;;6.50;3.00;;;;;21.92;60.15;101364.28;5084323;27;45337;-66
2023/08/23 08:03:44;;;;;;;;;3.25;3.00;;;;;22.08;59.88;101372.13;5084870;27;45144;-66
2023/08/23 08:06:10;;;;;;;;;4.75;3.25;;;;;22.21;59.93;101364.16;5084598;27;50891;-66
2023/08/23 08:08:39;;;;;;;;;3.00;3.00;;;;;22.31;60.03;101364.44;5081808;27;45339;-69
2023/08/23 08:11:05;;;;;;;;;4.25;2.50;;;;;22.39;59.53;101364.78;5090090;27;45459;-67
2023/08/23 08:13:30;;;;;;;;;3.25;3.25;;;;;22.43;59.38;101363.59;5093582;27;45324;-66
2023/08/23 08:15:55;;;;;;;;;4.50;3.25;;;;;22.54;59.07;101360.22;5090062;27;62669;-67
2023/08/23 08:18:21;;;;;;;;;4.00;3.00;;;;;22.63;58.59;101361.41;5088710;27;61670;-67
2023/08/23 08:20:48;;;;;;;;;4.00;2.75;;;;;22.69;58.68;101359.19;5085930;27;45273;-66
2023/08/23 08:23:13;;;;;;;;;10.00;8.75;;;;;22.75;58.44;101344.56;5061606;27;45525;-66
2023/08/23 08:25:39;;;;;;;;;8.00;6.00;;;;;22.85;58.07;101355.47;5075178;28;63254;-67
2023/08/23 08:28:05;;;;;;;;;4.25;4.00;;;;;22.93;58.29;101356.66;5094712;27;45530;-67
2023/08/23 08:30:30;;;;;;;;;3.50;3.50;;;;;23.02;58.27;101363.16;5079503;27;45665;-67
2023/08/23 08:32:55;;;;;;;;;3.00;3.00;;;;;23.08;57.97;101364.59;5096533;27;45533;-67
2023/08/23 08:35:21;;;;;;;;;5.25;4.00;;;;;23.16;57.84;101364.91;5088374;27;58455;-67
2023/08/23 08:37:46;;;;;;;;;3.75;3.25;;;;;23.23;57.44;101362.63;5092058;27;68321;-68
2023/08/23 08:40:12;;;;;;;;;3.50;2.25;;;;;23.28;57.24;101355.16;5104185;27;48035;-67
2023/08/23 08:42:37;;;;;;;;;5.00;3.00;;;;;23.42;56.90;101373.72;5066856;27;45418;-65
2023/08/23 08:45:05;;;;;;;;;4.75;3.75;;;;;23.47;57.03;101368.91;5078119;28;47440;-66
2023/08/23 08:47:30;;;;;;;;;2.25;2.00;;;;;23.55;56.90;101370.19;5081709;27;45524;-66
2023/08/23 08:49:56;;;;;;;;;4.25;3.25;;;;;23.63;56.72;101371.34;5088464;27;45564;-67
2023/08/23 08:52:24;;;;;;;;;2.25;2.25;;;;;23.69;56.78;101375.38;5081734;27;45379;-66
2023/08/23 08:54:51;;;;;;;;;3.25;2.25;;;;;23.76;56.54;101370.44;5102588;27;47531;-66
2023/08/23 08:57:16;;;;;;;;;4.25;2.75;;;;;23.80;56.07;101364.81;5087367;27;45500;-65
2023/08/23 08:59:42;;;;;;;;;3.25;2.50;;;;;23.94;55.69;101374.50;5103358;27;45455;-64
2023/08/23 09:02:09;;;;;;;;;3.25;3.25;;;;;24.07;55.58;101377.97;5081511;27;45497;-66
2023/08/23 09:04:37;;;;;;;;;5.25;4.00;;;;;24.17;55.53;101386.19;5093655;27;46308;-65
2023/08/23 09:07:02;;;;;;;;;3.25;3.25;;;;;24.27;55.22;101380.97;5093776;27;45706;-65
2023/08/23 09:09:28;;;;;;;;;13.25;10.50;;;;;24.38;55.06;101382.84;5104784;27;45810;-65
2023/08/23 09:11:53;;;;;;;;;6.50;6.50;;;;;24.48;54.73;101378.50;5072304;27;59478;-64
2023/08/23 09:14:21;;;;;;;;;0.00;0.00;;;;;24.58;54.76;101379.56;5094138;27;47909;-65
2023/08/23 09:16:47;;;;;;;;;5.75;4.50;;;;;24.68;54.89;101387.72;5087379;27;45312;-66
2023/08/23 09:19:14;;;;;;;;;6.00;4.25;;;;;24.78;54.25;101379.84;5097983;27;63439;-64
2023/08/23 09:21:43;;;;;;;;;3.25;2.50;;;;;24.85;53.81;101377.56;5096681;27;45312;-64
2023/08/23 09:24:09;;;;;;;;;3.25;2.50;;;;;24.94;53.95;101360.78;5083170;27;45395;-66
2023/08/23 09:26:34;;;;;;;;;4.25;4.25;;;;;25.06;53.89;101367.00;5092110;27;45227;-66
2023/08/23 09:29:01;;;;;;;;;8.50;7.50;;;;;25.14;53.18;101365.44;5096180;27;52540;-66
2023/08/23 09:31:27;;;;;;;;;7.25;4.50;;;;;25.24;53.45;101370.06;5088686;27;45509;-65
2023/08/23 09:33:53;;;;;;;;;8.00;6.00;;;;;25.33;53.26;101364.00;5088108;27;46073;-65
2023/08/23 09:36:30;;;;;;;;;5.00;3.00;;;;;25.44;52.87;101377.38;5088194;27;45818;-64
2023/08/23 09:38:56;;;;;;;;;3.75;3.75;;;;;25.54;52.70;101366.78;5094972;27;45774;-66
2023/08/23 09:41:22;;;;;;;;;2.75;2.75;;;;;25.64;52.48;101361.53;5068673;27;45291;-64
2023/08/23 09:43:54;;;;;;;;;3.25;3.25;;;;;25.72;52.26;101365.28;5077954;27;45960;-64
2023/08/23 09:46:25;;;;;;;;;4.00;4.00;;;;;25.81;52.36;101365.53;5081111;27;45324;-64
2023/08/23 09:48:53;;;;;;;;;3.00;3.00;;;;;25.87;52.24;101376.63;5092769;27;45485;-65
2023/08/23 09:51:19;;;;;;;;;4.50;4.00;;;;;25.94;51.78;101372.47;5096504;27;45284;-66
2023/08/23 09:53:46;;;;;;;;;16.00;11.25;;;;;25.99;52.13;101369.41;5081300;27;45429;-65
2023/08/23 09:56:13;;;;;;;;;66.75;49.00;;;;;26.08;51.63;101366.00;5093567;27;71620;-64
2023/08/23 09:58:38;;;;;;;;;7.25;7.25;;;;;26.21;50.97;101371.19;5095431;27;45420;-64
2023/08/23 10:01:04;;;;;;;;;8.75;8.00;;;;;26.31;51.30;101358.69;5095453;27;72327;-64
2023/08/23 10:03:29;;;;;;;;;5.00;4.00;;;;;26.43;50.48;101358.63;5080870;27;58759;-65
2023/08/23 10:05:55;;;;;;;;;13.50;10.75;;;;;26.54;50.55;101355.88;5082290;27;58421;-65
2023/08/23 10:08:20;;;;;;;;;16.50;14.25;;;;;26.64;50.70;101345.25;5088696;27;57014;-65
2023/08/23 10:10:49;;;;;;;;;15.00;10.25;;;;;26.74;50.03;101353.34;5082369;27;66991;-67
2023/08/23 10:13:15;;;;;;;;;8.00;7.00;;;;;26.84;50.13;101348.91;5065627;27;47301;-67
2023/08/23 10:15:40;;;;;;;;;5.75;4.00;;;;;26.90;49.85;101340.34;5081115;27;73624;-64
2023/08/23 10:18:11;;;;;;;;;4.75;4.25;;;;;26.99;49.36;101344.06;5094440;27;68850;-65
2023/08/23 10:20:37;;;;;;;;;4.00;3.25;;;;;27.07;49.73;101344.22;5080641;27;45385;-62
2023/08/23 10:23:15;;;;;;;;;15.00;12.50;;;;;27.14;49.14;101339.16;5085832;27;45656;-63
2023/08/23 10:25:45;;;;;;;;;5.50;4.00;;;;;27.19;49.13;101332.38;5083272;27;45159;-63
2023/08/23 10:28:12;;;;;;;;;10.50;8.50;;;;;27.24;49.36;101326.63;5096259;27;45367;-63
2023/08/23 10:30:41;;;;;;;;;3.50;3.50;;;;;27.30;49.58;101317.19;5094854;27;45340;-63
2023/08/23 10:33:07;;;;;;;;;9.50;6.50;;;;;27.32;49.23;101323.28;5087868;27;45469;-67
2023/08/23 10:35:34;;;;;;;;;4.00;4.00;;;;;27.34;49.02;101319.47;5098588;27;45598;-63
2023/08/23 10:38:00;;;;;;;;;6.00;4.00;;;;;27.37;48.34;101312.97;5091288;27;45311;-64
2023/08/23 10:40:30;;;;;;;;;6.00;5.00;;;;;27.44;48.67;101319.50;5101489;27;45478;-64
2023/08/23 10:42:56;;;;;;;;;5.00;5.00;;;;;27.49;48.66;101322.63;5085195;27;46424;-63
2023/08/23 10:45:22;;;;;;;;;6.00;5.25;;;;;27.54;48.30;101322.22;5090590;27;45243;-62
2023/08/23 10:47:51;;;;;;;;;7.75;7.00;;;;;27.57;47.77;101317.41;5088366;27;45277;-64
2023/08/23 10:50:17;;;;;;;;;11.50;10.25;;;;;27.59;48.15;101319.97;5093679;27;45366;-64
2023/08/23 10:52:43;;;;;;;;;8.25;6.00;;;;;27.61;48.14;101316.16;5094665;27;46202;-64
2023/08/23 10:55:08;;;;;;;;;10.75;8.00;;;;;27.67;48.24;101317.41;5089903;27;68999;-64
2023/08/23 10:57:33;;;;;;;;;9.25;6.75;;;;;27.70;48.21;101325.22;5095451;27;65650;-62
2023/08/23 10:59:59;;;;;;;;;5.00;5.00;;;;;27.76;47.99;101318.44;5099952;27;62661;-62
2023/08/23 11:02:24;;;;;;;;;5.00;5.00;;;;;27.84;48.09;101311.38;5097627;27;72885;-64
2023/08/23 11:04:50;;;;;;;;;9.00;6.00;;;;;28.01;47.61;101322.44;5081041;27;52611;-64
2023/08/23 11:07:15;;;;;;;;;7.75;5.75;;;;;28.14;47.07;101317.63;5097333;27;61169;-64
2023/08/23 11:09:41;;;;;;;;;8.50;6.00;;;;;28.29;47.02;101314.50;5098350;27;45536;-61
2023/08/23 11:12:07;;;;;;;;;4.25;4.25;;;;;28.43;46.94;101315.91;5093637;27;46295;-64
2023/08/23 11:14:32;;;;;;;;;7.75;7.75;;;;;28.59;46.78;101300.03;5090867;27;45457;-64
2023/08/23 11:16:58;;;;;;;;;5.75;5.25;;;;;28.78;46.14;101301.84;5094303;27;58603;-64
2023/08/23 11:19:23;;;;;;;;;5.75;5.25;;;;;28.93;46.63;101296.81;5085818;27;62075;-64